Terminal Aerodrome Forecast
Issued by NWS Cleveland, OH

Home | Current Version | Previous Version | Graphics & Text | Print | Product List | Glossary On
Versions: 1 2 3 4 5 6 7 8 9 10 11 12 13 14 15 16 17
000
FTUS41 KCLE 070539
TAFMFD
TAF
KMFD 070539Z 0706/0806 27010G18KT 5SM BR OVC015
      TEMPO 0709/0712 SCT015 OVC030
     FM071200 23010KT P6SM OVC030
     FM071700 22008KT P6SM BKN100=

USA.gov is the U.S. government's official web portal to all federal, state and local government web resources and services.